Time;durP1;ratioP1;P1;durP2;ratioP2;P2;SDS_P1;SDS_P2;PMS_P1;PMS_P2;Temp;Humidity;BMP_temperature;BMP_pressure;BME280_temperature;BME280_humidity;BME280_pressure;Samples;Min_cycle;Max_cycle;Signal;HPM_P1;HPM_P2
2022/06/22 00:01:50;;;;;;;4.53;2.83;;;;;;;;;;5051201;28;20063;-73
2022/06/22 00:04:27;;;;;;;4.50;2.47;;;;;;;;;;5052707;28;20074;-73
2022/06/22 00:07:03;;;;;;;4.63;2.40;;;;;;;;;;5051112;28;20029;-73
2022/06/22 00:09:32;;;;;;;3.80;2.30;;;;;;;;;;5051008;28;20029;-72
2022/06/22 00:11:58;;;;;;;2.83;2.28;;;;;;;;;;5051129;28;20059;-73
2022/06/22 00:14:48;;;;;;;7.00;3.15;;;;;;;;;;5052573;28;20052;-73
2022/06/22 00:17:20;;;;;;;3.58;2.40;;;;;;;;;;5051144;28;20035;-73
2022/06/22 00:19:47;;;;;;;2.83;2.47;;;;;;;;;;5050517;28;20049;-73
2022/06/22 00:22:22;;;;;;;5.35;2.60;;;;;;;;;;5058225;28;20028;-73
2022/06/22 00:25:11;;;;;;;3.90;2.63;;;;;;;;;;5071905;28;20024;-73
2022/06/22 00:27:37;;;;;;;6.88;2.30;;;;;;;;;;5071761;28;20039;-73
2022/06/22 00:30:27;;;;;;;3.85;2.63;;;;;;;;;;5070753;28;20016;-74
2022/06/22 00:33:13;;;;;;;9.15;2.80;;;;;;;;;;5070674;28;20032;-72
2022/06/22 00:36:11;;;;;;;15.60;6.68;;;;;;;;;;5070708;28;20056;-73
2022/06/22 00:38:36;;;;;;;3.63;2.45;;;;;;;;;;5070241;28;20115;-73
2022/06/22 00:41:32;;;;;;;6.07;2.65;;;;;;;;;;5072182;28;20124;-72
2022/06/22 00:44:07;;;;;;;4.70;2.50;;;;;;;;;;5054422;28;20063;-73
2022/06/22 00:46:33;;;;;;;5.50;2.30;;;;;;;;;;5069698;28;20056;-72
2022/06/22 00:49:09;;;;;;;3.55;2.15;;;;;;;;;;5070138;28;20113;-73
2022/06/22 00:51:39;;;;;;;6.35;2.80;;;;;;;;;;5071496;28;20103;-73
2022/06/22 00:54:10;;;;;;;3.65;2.65;;;;;;;;;;5070258;28;20134;-73
2022/06/22 00:56:54;;;;;;;4.53;3.15;;;;;;;;;;5070391;28;20123;-73
2022/06/22 00:59:26;;;;;;;10.55;3.28;;;;;;;;;;5070065;28;20553;-73
2022/06/22 01:02:11;;;;;;;9.93;3.70;;;;;;;;;;5070005;28;20062;-73
2022/06/22 01:04:43;;;;;;;8.32;3.53;;;;;;;;;;5070095;28;20020;-72
2022/06/22 01:07:33;;;;;;;8.63;3.78;;;;;;;;;;5070178;28;20059;-73
2022/06/22 01:10:14;;;;;;;5.60;3.80;;;;;;;;;;5071523;28;20032;-74
2022/06/22 01:13:06;;;;;;;6.50;3.20;;;;;;;;;;5071102;28;20093;-74
2022/06/22 01:15:44;;;;;;;6.05;4.25;;;;;;;;;;5070078;28;20174;-73
2022/06/22 01:18:14;;;;;;;5.55;3.63;;;;;;;;;;5069827;28;20044;-72
2022/06/22 01:21:02;;;;;;;6.15;4.28;;;;;;;;;;5069863;28;20078;-72
2022/06/22 01:23:39;;;;;;;4.38;3.53;;;;;;;;;;5055201;28;20025;-73
2022/06/22 01:26:15;;;;;;;6.90;3.97;;;;;;;;;;5051598;28;20029;-72
2022/06/22 01:28:41;;;;;;;7.82;4.05;;;;;;;;;;5050076;28;20041;-73
2022/06/22 01:31:13;;;;;;;6.90;3.75;;;;;;;;;;5050414;28;20025;-73
2022/06/22 01:33:50;;;;;;;6.60;4.15;;;;;;;;;;5051478;28;20021;-73
2022/06/22 01:36:32;;;;;;;4.03;3.63;;;;;;;;;;5052399;28;20033;-72
2022/06/22 01:38:57;;;;;;;10.55;4.65;;;;;;;;;;5051885;28;20028;-72
2022/06/22 01:41:44;;;;;;;9.00;3.92;;;;;;;;;;5050679;28;20033;-72
2022/06/22 01:44:40;;;;;;;5.07;3.60;;;;;;;;;;5050408;28;20024;-73
2022/06/22 01:47:27;;;;;;;5.90;3.78;;;;;;;;;;5051966;28;20029;-74
2022/06/22 01:50:01;;;;;;;5.63;3.55;;;;;;;;;;5049197;28;20029;-73
2022/06/22 01:52:51;;;;;;;10.20;4.07;;;;;;;;;;5049334;28;20033;-72
2022/06/22 01:55:37;;;;;;;7.35;4.25;;;;;;;;;;5049466;28;20028;-73
2022/06/22 01:58:11;;;;;;;9.68;4.95;;;;;;;;;;5049917;28;20033;-73
2022/06/22 02:00:37;;;;;;;12.13;5.38;;;;;;;;;;5048800;28;20052;-72
2022/06/22 02:03:22;;;;;;;13.00;5.35;;;;;;;;;;5048791;28;20097;-73
2022/06/22 02:06:02;;;;;;;8.93;5.10;;;;;;;;;;5050207;28;20029;-72
2022/06/22 02:08:36;;;;;;;10.90;5.70;;;;;;;;;;5048894;28;20029;-74
2022/06/22 02:11:10;;;;;;;7.78;4.20;;;;;;;;;;5048865;28;20033;-72
2022/06/22 02:13:46;;;;;;;8.00;4.35;;;;;;;;;;5048694;28;20452;-73
2022/06/22 02:16:19;;;;;;;7.18;4.10;;;;;;;;;;5050701;28;20037;-73
2022/06/22 02:19:10;;;;;;;7.72;3.90;;;;;;;;;;5049691;28;20052;-74
2022/06/22 02:22:01;;;;;;;93.65;11.05;;;;;;;;;;5051211;28;20079;-73
2022/06/22 02:24:41;;;;;;;5.63;3.72;;;;;;;;;;5068833;28;20119;-73
2022/06/22 02:27:11;;;;;;;5.93;3.60;;;;;;;;;;5068900;28;20039;-73
2022/06/22 02:29:50;;;;;;;4.18;3.60;;;;;;;;;;5068361;28;20021;-73
2022/06/22 02:32:37;;;;;;;4.50;3.40;;;;;;;;;;5069986;28;20024;-73
2022/06/22 02:35:05;;;;;;;5.57;3.67;;;;;;;;;;5067597;28;20071;-73
2022/06/22 02:37:36;;;;;;;5.50;4.22;;;;;;;;;;5068106;28;20028;-74
2022/06/22 02:40:06;;;;;;;3.92;3.63;;;;;;;;;;5068250;28;20127;-72
2022/06/22 02:45:19;;;;;;;5.25;4.18;;;;;;;;;;5069788;28;20054;-73
2022/06/22 02:48:01;;;;;;;4.53;3.92;;;;;;;;;;5067901;28;20078;-72
2022/06/22 02:50:29;;;;;;;;;;;;;;;;;;5068440;28;20111;-73
2022/06/22 02:53:06;;;;;;;5.63;3.53;;;;;;;;;;5067750;28;19912;-73
2022/06/22 02:55:36;;;;;;;6.47;4.20;;;;;;;;;;5068238;28;20032;-73
2022/06/22 02:58:20;;;;;;;5.10;3.92;;;;;;;;;;5069624;28;20030;-73
2022/06/22 03:00:46;;;;;;;5.13;3.38;;;;;;;;;;5069335;28;20025;-72
2022/06/22 03:03:14;;;;;;;4.13;3.70;;;;;;;;;;5069496;28;20032;-73
2022/06/22 03:05:43;;;;;;;6.93;3.97;;;;;;;;;;5069302;28;20548;-73
2022/06/22 03:08:14;;;;;;;4.40;4.00;;;;;;;;;;5068166;28;20020;-74
2022/06/22 03:10:47;;;;;;;4.38;3.97;;;;;;;;;;5067546;28;20020;-72
2022/06/22 03:13:19;;;;;;;6.53;4.00;;;;;;;;;;5067999;28;20054;-73
2022/06/22 03:15:45;;;;;;;;;;;;;;;;;;5067972;28;20029;-73
2022/06/22 03:18:18;;;;;;;5.47;3.25;;;;;;;;;;5067341;28;19923;-73
2022/06/22 03:20:53;;;;;;;4.28;3.55;;;;;;;;;;5051009;28;20061;-72
2022/06/22 03:23:34;;;;;;;5.25;3.53;;;;;;;;;;5053952;28;20060;-73
2022/06/22 03:26:10;;;;;;;5.00;4.40;;;;;;;;;;5048755;28;20021;-73
2022/06/22 03:28:41;;;;;;;4.20;3.72;;;;;;;;;;5049148;28;20025;-73
2022/06/22 03:31:16;;;;;;;6.75;3.70;;;;;;;;;;5048861;28;20025;-73
2022/06/22 03:33:51;;;;;;;4.82;3.75;;;;;;;;;;5047512;28;20033;-73
2022/06/22 03:36:21;;;;;;;4.30;3.88;;;;;;;;;;5047674;28;20416;-73
2022/06/22 03:38:52;;;;;;;5.68;3.75;;;;;;;;;;5047238;28;20111;-74
2022/06/22 03:41:22;;;;;;;5.82;3.92;;;;;;;;;;5049120;28;20393;-74
2022/06/22 03:43:50;;;;;;;6.50;4.25;;;;;;;;;;5048936;28;20066;-74
2022/06/22 03:46:37;;;;;;;5.78;3.78;;;;;;;;;;5047546;28;20122;-74
2022/06/22 03:49:24;;;;;;;5.60;4.10;;;;;;;;;;5047647;28;20029;-74
2022/06/22 03:51:57;;;;;;;8.77;3.88;;;;;;;;;;5049218;28;20033;-73
2022/06/22 03:54:31;;;;;;;8.77;4.57;;;;;;;;;;5048988;28;20048;-73
2022/06/22 03:57:01;;;;;;;7.28;4.03;;;;;;;;;;5048577;28;20033;-73
2022/06/22 03:59:27;;;;;;;8.75;3.97;;;;;;;;;;5046982;28;20175;-73
2022/06/22 04:01:56;;;;;;;5.50;4.05;;;;;;;;;;5047125;28;20086;-73
2022/06/22 04:04:23;;;;;;;6.60;4.20;;;;;;;;;;5047346;28;20473;-74
2022/06/22 04:06:55;;;;;;;4.25;3.75;;;;;;;;;;5047384;28;20108;-73
2022/06/22 04:09:22;;;;;;;;;;;;;;;;;;5047798;28;20040;-74
2022/06/22 04:12:00;;;;;;;9.50;3.92;;;;;;;;;;5047031;28;20054;-74
2022/06/22 04:14:39;;;;;;;5.03;4.18;;;;;;;;;;5047348;28;20021;-73
2022/06/22 04:17:17;;;;;;;5.40;4.35;;;;;;;;;;5048851;28;20470;-74
2022/06/22 04:19:50;;;;;;;7.60;4.55;;;;;;;;;;5046698;28;20489;-73
2022/06/22 04:22:23;;;;;;;5.85;3.75;;;;;;;;;;5056911;28;20024;-74
2022/06/22 04:25:29;;;;;;;5.95;4.55;;;;;;;;;;5072121;28;20028;-73
2022/06/22 04:27:58;;;;;;;6.25;4.32;;;;;;;;;;5057553;28;20051;-73
2022/06/22 04:30:28;;;;;;;6.35;4.20;;;;;;;;;;5070918;28;20032;-73
2022/06/22 04:33:04;;;;;;;5.97;4.20;;;;;;;;;;5070622;28;20044;-73
2022/06/22 04:35:32;;;;;;;4.50;3.85;;;;;;;;;;5070942;28;20028;-73
2022/06/22 04:38:20;;;;;;;9.75;4.80;;;;;;;;;;5070619;28;20063;-72
2022/06/22 04:41:15;;;;;;;6.97;3.80;;;;;;;;;;5070562;28;20036;-73
2022/06/22 04:43:41;;;;;;;10.57;4.47;;;;;;;;;;5037479;28;20046;-72
2022/06/22 04:46:11;;;;;;;10.30;4.05;;;;;;;;;;5070379;28;20028;-73
2022/06/22 04:48:40;;;;;;;4.05;3.42;;;;;;;;;;5071419;28;20024;-73
2022/06/22 04:51:13;;;;;;;4.60;3.70;;;;;;;;;;5071970;28;20039;-74
2022/06/22 04:53:46;;;;;;;6.50;3.50;;;;;;;;;;5070950;28;20035;-73
2022/06/22 04:56:16;;;;;;;7.55;4.50;;;;;;;;;;5072831;28;20610;-74
2022/06/22 04:58:54;;;;;;;9.52;3.78;;;;;;;;;;5070539;28;20067;-73
2022/06/22 05:01:26;;;;;;;4.80;3.50;;;;;;;;;;5070352;28;20032;-73
2022/06/22 05:03:57;;;;;;;8.82;3.92;;;;;;;;;;5070429;28;20089;-73
2022/06/22 05:06:53;;;;;;;4.43;4.03;;;;;;;;;;5071794;28;20141;-73
2022/06/22 05:09:40;;;;;;;5.88;3.90;;;;;;;;;;5061836;28;20059;-73
2022/06/22 05:12:12;;;;;;;5.60;4.05;;;;;;;;;;5070271;28;20427;-74
2022/06/22 05:14:39;;;;;;;7.53;3.33;;;;;;;;;;5071518;28;20025;-74
2022/06/22 05:17:13;;;;;;;12.93;7.18;;;;;;;;;;5069776;28;20029;-73
2022/06/22 05:19:59;;;;;;;5.95;4.05;;;;;;;;;;5069770;28;20052;-74
2022/06/22 05:22:25;;;;;;;4.60;3.92;;;;;;;;;;5062156;28;20021;-74
2022/06/22 05:24:56;;;;;;;9.65;3.95;;;;;;;;;;5049926;28;20432;-72
2022/06/22 05:27:28;;;;;;;8.68;4.60;;;;;;;;;;5029813;28;20037;-75
2022/06/22 05:30:03;;;;;;;7.15;4.13;;;;;;;;;;5041998;28;20116;-74
2022/06/22 05:32:55;;;;;;;8.88;4.20;;;;;;;;;;5048230;28;20041;-74
2022/06/22 05:35:31;;;;;;;5.93;3.92;;;;;;;;;;5050639;28;20044;-74
2022/06/22 05:37:59;;;;;;;8.57;3.97;;;;;;;;;;5049159;28;20420;-74
2022/06/22 05:40:28;;;;;;;8.20;4.72;;;;;;;;;;5033405;28;20025;-73
2022/06/22 05:42:56;;;;;;;8.80;5.30;;;;;;;;;;5048161;28;20032;-75
2022/06/22 05:45:33;;;;;;;11.20;4.72;;;;;;;;;;5049135;28;20109;-73
2022/06/22 05:47:59;;;;;;;6.22;4.07;;;;;;;;;;5046938;28;20035;-72
2022/06/22 05:50:48;;;;;;;8.65;4.30;;;;;;;;;;5029358;28;20025;-74
2022/06/22 05:53:31;;;;;;;4.88;3.85;;;;;;;;;;5031869;28;20481;-76
2022/06/22 05:56:12;;;;;;;4.10;3.72;;;;;;;;;;5029886;28;20038;-75
2022/06/22 05:58:58;;;;;;;5.45;3.47;;;;;;;;;;5028295;28;20462;-75
2022/06/22 06:01:29;;;;;;;5.65;3.83;;;;;;;;;;5032458;28;20029;-76
2022/06/22 06:04:13;;;;;;;9.27;4.20;;;;;;;;;;5016602;28;20401;-70
2022/06/22 06:06:44;;;;;;;5.53;5.03;;;;;;;;;;5032280;28;20046;-74
2022/06/22 06:09:19;;;;;;;7.30;3.92;;;;;;;;;;5027627;28;20432;-74
2022/06/22 06:11:55;;;;;;;7.38;4.22;;;;;;;;;;5033177;28;20532;-72
2022/06/22 06:14:27;;;;;;;8.70;4.90;;;;;;;;;;5030597;28;20074;-73
2022/06/22 06:16:56;;;;;;;7.03;4.32;;;;;;;;;;5049256;28;20036;-74
2022/06/22 06:19:25;;;;;;;11.57;4.47;;;;;;;;;;5024047;28;20041;-72
2022/06/22 06:21:56;;;;;;;6.88;4.50;;;;;;;;;;5031475;28;20021;-74
2022/06/22 06:24:31;;;;;;;8.10;4.32;;;;;;;;;;5033493;28;20020;-74
2022/06/22 06:30:00;;;;;;;7.57;4.55;;;;;;;;;;5034073;28;20071;-73
2022/06/22 06:32:30;;;;;;;5.97;3.65;;;;;;;;;;5032660;28;20108;-74
2022/06/22 06:35:53;;;;;;;9.45;4.55;;;;;;;;;;5034477;28;20036;-73
2022/06/22 06:38:34;;;;;;;8.45;3.92;;;;;;;;;;4980642;28;20022;-72
2022/06/22 06:41:16;;;;;;;13.30;4.03;;;;;;;;;;4967484;28;20133;-72
2022/06/22 06:44:14;;;;;;;;;;;;;;;;;;5019117;28;20037;-73
2022/06/22 06:46:54;;;;;;;6.20;3.90;;;;;;;;;;5011251;28;19928;-75
2022/06/22 06:49:51;;;;;;;10.85;3.92;;;;;;;;;;5027313;28;20082;-75
2022/06/22 06:52:37;;;;;;;7.75;4.03;;;;;;;;;;5020195;28;20037;-75
2022/06/22 06:55:34;;;;;;;10.55;4.15;;;;;;;;;;5053741;28;20126;-72
2022/06/22 06:58:17;;;;;;;7.65;3.20;;;;;;;;;;5028109;28;20033;-75
2022/06/22 07:00:45;;;;;;;5.38;3.05;;;;;;;;;;5033441;28;20063;-75
2022/06/22 07:03:40;;;;;;;14.13;4.32;;;;;;;;;;5039636;28;20041;-75
2022/06/22 07:06:06;;;;;;;10.02;4.75;;;;;;;;;;5029308;28;20665;-71
2022/06/22 07:08:36;;;;;;;9.93;3.20;;;;;;;;;;5024114;28;20079;-72
2022/06/22 07:11:31;;;;;;;9.07;3.63;;;;;;;;;;5031034;28;20120;-71
2022/06/22 07:14:15;;;;;;;6.32;2.80;;;;;;;;;;5028631;28;20114;-73
2022/06/22 07:16:42;;;;;;;8.13;3.40;;;;;;;;;;5026215;28;20029;-72
2022/06/22 07:19:12;;;;;;;7.90;3.33;;;;;;;;;;5011389;28;21244;-73
2022/06/22 07:21:46;;;;;;;5.70;2.67;;;;;;;;;;5030534;28;20047;-76
2022/06/22 07:24:30;;;;;;;7.10;4.10;;;;;;;;;;5031146;28;20048;-73
2022/06/22 07:27:28;;;;;;;9.55;3.10;;;;;;;;;;5028934;28;20047;-76
2022/06/22 07:30:06;;;;;;;11.43;3.03;;;;;;;;;;5054897;28;20034;-75
2022/06/22 07:33:02;;;;;;;4.97;2.30;;;;;;;;;;5028724;28;20197;-75
2022/06/22 07:35:37;;;;;;;4.53;2.30;;;;;;;;;;5031128;28;20044;-77
2022/06/22 07:38:05;;;;;;;3.42;2.58;;;;;;;;;;5023294;28;20065;-77
2022/06/22 07:40:34;;;;;;;6.35;3.25;;;;;;;;;;5031048;28;20025;-74
2022/06/22 07:43:00;;;;;;;5.05;2.53;;;;;;;;;;5013548;28;20036;-74
2022/06/22 07:45:28;;;;;;;6.90;2.80;;;;;;;;;;5026070;28;20151;-74
2022/06/22 07:48:00;;;;;;;4.28;2.72;;;;;;;;;;5025095;28;20033;-75
2022/06/22 07:50:39;;;;;;;10.13;2.60;;;;;;;;;;5052916;28;20079;-76
2022/06/22 07:53:36;;;;;;;5.03;2.30;;;;;;;;;;5030617;28;20052;-72
2022/06/22 07:56:21;;;;;;;9.40;3.20;;;;;;;;;;5056809;28;20036;-75
2022/06/22 07:58:56;;;;;;;7.80;2.70;;;;;;;;;;5030788;28;20029;-74
2022/06/22 08:01:30;;;;;;;8.52;2.90;;;;;;;;;;5050736;28;20087;-74
2022/06/22 08:04:19;;;;;;;8.93;2.45;;;;;;;;;;5032374;28;20334;-75
2022/06/22 08:06:56;;;;;;;4.68;2.40;;;;;;;;;;5035988;28;20938;-78
2022/06/22 08:09:31;;;;;;;4.32;2.83;;;;;;;;;;5037274;28;20052;-76
2022/06/22 08:12:14;;;;;;;6.00;2.88;;;;;;;;;;5028463;28;20031;-75
2022/06/22 08:14:46;;;;;;;6.15;2.80;;;;;;;;;;5029787;28;20533;-74
2022/06/22 08:17:36;;;;;;;5.45;3.13;;;;;;;;;;5024811;28;20036;-74
2022/06/22 08:20:04;;;;;;;7.20;2.90;;;;;;;;;;5031142;28;20045;-76
2022/06/22 08:22:30;;;;;;;6.50;2.92;;;;;;;;;;5030134;28;20483;-74
2022/06/22 08:24:57;;;;;;;5.13;2.83;;;;;;;;;;5033728;28;20036;-75
2022/06/22 08:27:25;;;;;;;6.22;2.70;;;;;;;;;;5028206;28;20037;-75
2022/06/22 08:29:53;;;;;;;6.43;2.80;;;;;;;;;;5032093;28;20456;-76
2022/06/22 08:32:40;;;;;;;6.53;2.35;;;;;;;;;;5032164;28;20106;-75
2022/06/22 08:35:35;;;;;;;4.72;2.97;;;;;;;;;;5033168;28;20033;-73
2022/06/22 08:38:10;;;;;;;6.40;3.00;;;;;;;;;;5028121;28;20048;-74
2022/06/22 08:40:58;;;;;;;9.80;2.13;;;;;;;;;;5054578;28;20029;-74
2022/06/22 08:44:10;;;;;;;6.28;3.72;;;;;;;;;;5037447;28;20029;-76
2022/06/22 08:46:52;;;;;;;44.08;7.65;;;;;;;;;;5002487;28;20140;-76
2022/06/22 08:49:47;;;;;;;9.65;6.28;;;;;;;;;;5035248;28;20037;-75
2022/06/22 08:52:39;;;;;;;5.80;2.70;;;;;;;;;;5055026;28;20162;-75
2022/06/22 08:55:34;;;;;;;6.50;2.97;;;;;;;;;;5039680;28;20048;-74
2022/06/22 08:58:13;;;;;;;13.95;2.83;;;;;;;;;;5039453;28;20049;-75
2022/06/22 09:00:44;;;;;;;5.90;2.67;;;;;;;;;;5031739;28;20064;-76
2022/06/22 09:03:15;;;;;;;10.18;2.63;;;;;;;;;;5039278;28;20028;-74
2022/06/22 09:05:59;;;;;;;;;;;;;;;;;;5030937;28;20079;-78
2022/06/22 09:09:03;;;;;;;7.18;2.38;;;;;;;;;;5025653;28;19913;-75
2022/06/22 09:11:42;;;;;;;4.32;2.03;;;;;;;;;;5031123;28;20405;-75
2022/06/22 09:14:34;;;;;;;4.30;2.63;;;;;;;;;;5035078;28;20043;-76
2022/06/22 09:17:00;;;;;;;8.65;3.10;;;;;;;;;;5027379;28;20083;-73
2022/06/22 09:19:31;;;;;;;4.22;2.25;;;;;;;;;;5033392;28;20078;-75
2022/06/22 09:22:16;;;;;;;10.68;3.20;;;;;;;;;;5026593;28;20123;-73
2022/06/22 09:25:09;;;;;;;5.25;2.45;;;;;;;;;;5033806;28;20144;-74
2022/06/22 09:27:38;;;;;;;4.78;2.88;;;;;;;;;;5051153;28;20055;-75
2022/06/22 09:30:28;;;;;;;5.63;2.20;;;;;;;;;;5033674;28;20025;-76
2022/06/22 09:32:53;;;;;;;4.45;2.60;;;;;;;;;;5032609;28;20427;-76
2022/06/22 09:35:38;;;;;;;3.92;2.00;;;;;;;;;;5033426;28;20049;-76
2022/06/22 09:38:26;;;;;;;7.45;2.30;;;;;;;;;;5027256;28;20033;-77
2022/06/22 09:41:03;;;;;;;4.60;2.45;;;;;;;;;;5031063;28;20028;-75
2022/06/22 09:43:49;;;;;;;4.38;3.20;;;;;;;;;;5030092;28;20037;-72
2022/06/22 09:47:00;;;;;;;8.02;2.65;;;;;;;;;;5030076;28;20111;-78
2022/06/22 09:49:43;;;;;;;10.60;3.03;;;;;;;;;;5029911;28;20024;-75
2022/06/22 09:52:37;;;;;;;7.03;2.55;;;;;;;;;;5032653;28;20024;-75
2022/06/22 09:58:38;;;;;;;3.22;1.90;;;;;;;;;;5032621;28;20412;-76
2022/06/22 10:01:36;;;;;;;6.10;2.83;;;;;;;;;;5053970;28;20527;-75
2022/06/22 10:04:35;;;;;;;3.17;2.08;;;;;;;;;;4985600;28;20046;-75
2022/06/22 10:07:07;;;;;;;2.75;2.10;;;;;;;;;;5027602;28;20158;-74
2022/06/22 10:09:32;;;;;;;6.53;2.80;;;;;;;;;;5031283;28;20522;-76
2022/06/22 10:12:43;;;;;;;4.53;2.45;;;;;;;;;;5028877;28;20025;-76
2022/06/22 10:15:31;;;;;;;5.93;3.08;;;;;;;;;;5031920;28;20037;-76
2022/06/22 10:18:17;;;;;;;2.45;2.25;;;;;;;;;;5027924;28;20064;-75
2022/06/22 10:21:05;;;;;;;6.70;2.90;;;;;;;;;;5020751;28;20053;-74
2022/06/22 10:23:45;;;;;;;4.80;3.00;;;;;;;;;;5031392;28;20036;-75
2022/06/22 10:26:36;;;;;;;4.50;2.30;;;;;;;;;;5032042;28;20037;-76
2022/06/22 10:29:29;;;;;;;;;;;;;;;;;;5031891;28;20047;-76
2022/06/22 10:32:17;;;;;;;2.60;2.03;;;;;;;;;;5008966;28;19913;-75
2022/06/22 10:34:51;;;;;;;3.80;2.38;;;;;;;;;;5032744;28;20036;-76
2022/06/22 10:37:38;;;;;;;3.28;2.33;;;;;;;;;;5028635;28;20063;-75
2022/06/22 10:46:10;;;;;;;3.53;3.22;;;;;;;;;;5042335;28;20803;-76
2022/06/22 10:49:00;;;;;;;3.00;2.25;;;;;;;;;;5035971;28;20072;-76
2022/06/22 10:52:04;;;;;;;2.53;2.30;;;;;;;;;;5036981;28;20060;-76
2022/06/22 10:55:07;;;;;;;3.47;2.90;;;;;;;;;;5038513;28;20392;-77
2022/06/22 10:57:35;;;;;;;3.55;2.72;;;;;;;;;;5033479;28;20140;-74
2022/06/22 11:00:07;;;;;;;3.75;2.28;;;;;;;;;;5033789;28;20036;-75
2022/06/22 11:02:53;;;;;;;3.97;2.53;;;;;;;;;;5034560;28;20131;-75
2022/06/22 11:05:47;;;;;;;2.67;1.80;;;;;;;;;;5037903;28;20048;-75
2022/06/22 11:08:29;;;;;;;2.33;2.10;;;;;;;;;;5033910;28;21752;-77
2022/06/22 11:11:26;;;;;;;2.30;2.10;;;;;;;;;;5030657;28;20033;-76
2022/06/22 11:14:16;;;;;;;3.63;2.05;;;;;;;;;;5030588;28;20033;-78
2022/06/22 11:17:19;;;;;;;7.78;2.55;;;;;;;;;;5030989;28;20041;-79
2022/06/22 11:20:19;;;;;;;2.17;1.83;;;;;;;;;;5028323;28;20044;-76
2022/06/22 11:23:07;;;;;;;3.70;2.05;;;;;;;;;;5028503;28;20053;-79
2022/06/22 11:32:07;;;;;;;2.03;1.92;;;;;;;;;;5029116;28;20051;-77
2022/06/22 11:34:55;;;;;;;2.40;1.80;;;;;;;;;;5033279;28;20040;-80
2022/06/22 11:37:42;;;;;;;3.67;3.28;;;;;;;;;;5032281;28;20021;-77
2022/06/22 11:40:28;;;;;;;8.30;2.35;;;;;;;;;;5045046;28;20148;-77
2022/06/22 11:43:14;;;;;;;4.32;2.63;;;;;;;;;;5043552;28;20030;-78
2022/06/22 11:46:10;;;;;;;5.07;2.33;;;;;;;;;;5046525;28;20034;-76
2022/06/22 11:48:56;;;;;;;3.75;2.33;;;;;;;;;;5044998;28;20577;-76
2022/06/22 11:51:57;;;;;;;1.95;1.50;;;;;;;;;;5044921;28;20110;-75
2022/06/22 11:54:34;;;;;;;2.88;2.10;;;;;;;;;;5029993;28;20037;-76
2022/06/22 11:57:42;;;;;;;7.75;3.60;;;;;;;;;;5025849;28;20045;-77
2022/06/22 12:00:20;;;;;;;2.63;1.83;;;;;;;;;;5028928;28;20166;-76
2022/06/22 12:03:04;;;;;;;2.75;1.70;;;;;;;;;;5025739;28;20846;-76
2022/06/22 12:05:44;;;;;;;7.95;2.00;;;;;;;;;;5026750;28;20496;-76
2022/06/22 12:08:25;;;;;;;10.27;2.30;;;;;;;;;;5024938;28;20123;-75
2022/06/22 12:10:51;;;;;;;;;;;;;;;;;;5060407;28;20069;-77
2022/06/22 12:16:56;;;;;;;2.38;1.70;;;;;;;;;;5030432;28;20064;-79
2022/06/22 12:19:34;;;;;;;5.38;1.70;;;;;;;;;;5033404;28;20049;-76
2022/06/22 12:22:19;;;;;;;1.90;1.80;;;;;;;;;;5032557;28;20468;-78
2022/06/22 12:25:11;;;;;;;3.88;2.17;;;;;;;;;;5035091;28;20051;-75
2022/06/22 12:27:40;;;;;;;3.60;1.70;;;;;;;;;;5022154;28;20037;-71
2022/06/22 12:30:43;;;;;;;4.60;2.30;;;;;;;;;;5029366;28;20513;-74
2022/06/22 12:33:40;;;;;;;3.53;1.88;;;;;;;;;;5027785;28;20813;-74
2022/06/22 12:36:17;;;;;;;3.65;1.90;;;;;;;;;;5026378;28;20103;-75
2022/06/22 12:38:47;;;;;;;5.40;1.83;;;;;;;;;;5026183;28;20431;-74
2022/06/22 12:41:28;;;;;;;4.32;1.70;;;;;;;;;;5031427;28;20580;-75
2022/06/22 12:44:50;;;;;;;2.85;1.60;;;;;;;;;;5028078;28;20069;-75
2022/06/22 12:47:40;;;;;;;2.58;2.38;;;;;;;;;;4961132;28;20048;-77
2022/06/22 12:50:34;;;;;;;12.48;6.60;;;;;;;;;;5026981;28;20041;-77
2022/06/22 12:53:15;;;;;;;3.92;2.13;;;;;;;;;;5034892;28;20031;-75
2022/06/22 12:56:02;;;;;;;2.38;1.65;;;;;;;;;;5029888;28;20048;-75
2022/06/22 12:58:33;;;;;;;3.13;1.58;;;;;;;;;;5023690;28;20745;-76
2022/06/22 13:00:59;;;;;;;4.00;1.85;;;;;;;;;;5029084;28;20432;-74
2022/06/22 13:03:32;;;;;;;3.53;1.60;;;;;;;;;;5028816;28;20044;-77
2022/06/22 13:05:58;;;;;;;3.03;1.77;;;;;;;;;;5029111;28;20056;-73
2022/06/22 13:08:26;;;;;;;2.78;1.50;;;;;;;;;;5025207;28;20094;-75
2022/06/22 13:10:58;;;;;;;1.73;1.58;;;;;;;;;;5028553;28;20116;-75
2022/06/22 13:13:57;;;;;;;2.63;1.65;;;;;;;;;;5029000;28;20029;-76
2022/06/22 13:16:33;;;;;;;6.80;2.17;;;;;;;;;;5027771;28;20500;-76
2022/06/22 13:19:18;;;;;;;3.90;1.70;;;;;;;;;;5039536;28;20056;-75
2022/06/22 13:21:56;;;;;;;1.98;1.70;;;;;;;;;;5046443;28;20059;-77
2022/06/22 13:24:32;;;;;;;3.15;1.80;;;;;;;;;;5042009;28;20480;-75
2022/06/22 13:27:19;;;;;;;3.35;1.75;;;;;;;;;;5045009;28;20040;-75
2022/06/22 13:30:07;;;;;;;2.63;1.50;;;;;;;;;;5047803;28;20424;-76
2022/06/22 13:32:33;;;;;;;5.32;1.55;;;;;;;;;;5049305;28;20032;-77
2022/06/22 13:35:03;;;;;;;3.72;1.58;;;;;;;;;;5043058;28;20095;-80
2022/06/22 13:37:47;;;;;;;1.58;1.35;;;;;;;;;;5044648;28;20392;-76
2022/06/22 13:40:29;;;;;;;9.25;2.30;;;;;;;;;;5046388;28;20028;-78
2022/06/22 13:43:13;;;;;;;9.77;2.58;;;;;;;;;;5047034;28;20025;-79
2022/06/22 13:46:00;;;;;;;3.20;1.83;;;;;;;;;;5061717;28;20256;-80
2022/06/22 13:48:35;;;;;;;3.47;1.95;;;;;;;;;;5045854;28;20031;-80
2022/06/22 13:51:14;;;;;;;6.95;2.38;;;;;;;;;;5045413;28;20031;-79
2022/06/22 13:53:41;;;;;;;3.92;2.05;;;;;;;;;;5045154;28;20033;-75
2022/06/22 13:56:53;;;;;;;7.05;2.30;;;;;;;;;;5048152;28;20098;-75
2022/06/22 13:59:26;;;;;;;3.38;2.03;;;;;;;;;;5046681;28;20025;-74
2022/06/22 14:02:01;;;;;;;2.83;2.17;;;;;;;;;;5045141;28;20020;-75
2022/06/22 14:04:33;;;;;;;10.55;2.53;;;;;;;;;;5043724;28;20099;-76
2022/06/22 14:07:18;;;;;;;6.40;2.25;;;;;;;;;;5046868;28;20032;-78
2022/06/22 14:09:53;;;;;;;5.22;2.15;;;;;;;;;;5054608;28;20161;-77
2022/06/22 14:12:23;;;;;;;6.45;2.50;;;;;;;;;;5046020;28;20024;-77
2022/06/22 14:15:35;;;;;;;3.65;2.53;;;;;;;;;;5049759;28;20072;-76
2022/06/22 14:18:26;;;;;;;6.68;2.13;;;;;;;;;;5005692;28;20073;-78
2022/06/22 14:21:13;;;;;;;4.28;2.20;;;;;;;;;;5045692;28;20485;-77
2022/06/22 14:23:39;;;;;;;4.07;2.10;;;;;;;;;;5061464;28;20031;-77
2022/06/22 14:26:41;;;;;;;4.70;1.63;;;;;;;;;;5046875;28;20029;-77
2022/06/22 14:29:26;;;;;;;5.18;2.25;;;;;;;;;;5045766;28;20111;-77
2022/06/22 14:31:54;;;;;;;4.53;1.50;;;;;;;;;;5046305;28;20589;-76
2022/06/22 14:34:38;;;;;;;5.32;2.92;;;;;;;;;;5046991;28;20321;-76
2022/06/22 14:37:23;;;;;;;4.55;1.85;;;;;;;;;;5046028;28;20404;-77
2022/06/22 14:39:54;;;;;;;1.98;1.65;;;;;;;;;;5046705;28;20033;-78
2022/06/22 14:42:35;;;;;;;5.35;1.92;;;;;;;;;;5047808;28;20045;-78
2022/06/22 14:45:33;;;;;;;5.05;1.67;;;;;;;;;;5046516;28;20028;-77
2022/06/22 14:48:06;;;;;;;2.88;1.70;;;;;;;;;;5046303;28;20477;-78
2022/06/22 14:50:50;;;;;;;6.95;1.83;;;;;;;;;;5051267;28;20033;-75
2022/06/22 14:53:31;;;;;;;2.40;1.50;;;;;;;;;;5047685;28;20029;-77
2022/06/22 14:56:01;;;;;;;7.03;1.95;;;;;;;;;;5050718;28;20117;-77
2022/06/22 14:59:04;;;;;;;5.63;2.20;;;;;;;;;;5050581;28;20066;-77
2022/06/22 15:01:44;;;;;;;2.67;1.60;;;;;;;;;;5041491;28;20110;-78
2022/06/22 15:04:13;;;;;;;2.78;2.03;;;;;;;;;;5045905;28;20069;-76
2022/06/22 15:06:53;;;;;;;2.80;1.88;;;;;;;;;;5054348;28;20024;-77
2022/06/22 15:09:37;;;;;;;;;;;;;;;;;;5047313;28;20079;-76
2022/06/22 15:15:37;;;;;;;4.45;1.85;;;;;;;;;;5041943;28;20044;-78
2022/06/22 15:18:36;;;;;;;3.67;1.95;;;;;;;;;;5045550;28;20052;-76
2022/06/22 15:21:35;;;;;;;2.42;2.10;;;;;;;;;;5048442;28;20109;-78
2022/06/22 15:24:25;;;;;;;7.35;2.15;;;;;;;;;;5014160;28;20029;-76
2022/06/22 15:26:53;;;;;;;9.27;3.83;;;;;;;;;;5047167;28;20032;-78
2022/06/22 15:29:29;;;;;;;2.38;2.17;;;;;;;;;;5048014;28;20448;-78
2022/06/22 15:32:03;;;;;;;4.40;2.75;;;;;;;;;;5033503;28;20024;-76
2022/06/22 15:34:44;;;;;;;4.10;2.28;;;;;;;;;;5046437;28;20033;-78
2022/06/22 15:37:18;;;;;;;;;;;;;;;;;;5046605;28;20329;-76
2022/06/22 15:40:12;;;;;;;11.10;3.40;;;;;;;;;;5046779;28;19920;-77
2022/06/22 15:43:08;;;;;;;3.42;2.28;;;;;;;;;;5047249;28;20037;-78
2022/06/22 15:46:09;;;;;;;5.18;2.80;;;;;;;;;;4997387;28;20052;-78
2022/06/22 15:48:55;;;;;;;2.92;1.70;;;;;;;;;;5047912;28;20492;-76
2022/06/22 15:51:47;;;;;;;8.35;4.20;;;;;;;;;;5047402;28;20223;-76
2022/06/22 15:54:34;;;;;;;6.38;3.40;;;;;;;;;;5042302;28;20033;-76
2022/06/22 15:57:08;;;;;;;5.70;2.78;;;;;;;;;;5049230;28;20059;-75
2022/06/22 15:59:47;;;;;;;3.40;1.90;;;;;;;;;;5049607;28;20052;-77
2022/06/22 16:02:34;;;;;;;3.10;2.22;;;;;;;;;;5047557;28;20029;-80
2022/06/22 16:05:22;;;;;;;5.72;2.58;;;;;;;;;;5048116;28;20029;-78
2022/06/22 16:08:11;;;;;;;4.18;1.92;;;;;;;;;;5047097;28;20052;-81
2022/06/22 16:13:54;;;;;;;3.70;1.80;;;;;;;;;;5048751;28;20067;-79
2022/06/22 16:16:33;;;;;;;8.48;3.78;;;;;;;;;;5046593;28;20051;-80
2022/06/22 16:19:14;;;;;;;4.38;1.88;;;;;;;;;;5049739;28;20140;-78
2022/06/22 16:21:43;;;;;;;3.45;2.53;;;;;;;;;;5050662;28;20353;-78
2022/06/22 16:24:08;;;;;;;2.15;1.83;;;;;;;;;;5050501;28;20476;-80
2022/06/22 16:26:52;;;;;;;3.80;2.13;;;;;;;;;;5050485;28;20041;-77
2022/06/22 16:29:55;;;;;;;3.70;2.30;;;;;;;;;;5050974;28;20033;-80
2022/06/22 16:32:39;;;;;;;5.70;2.40;;;;;;;;;;5040643;28;20132;-79
2022/06/22 16:35:30;;;;;;;6.13;2.35;;;;;;;;;;5050149;28;20033;-78